sensor_id;sensor_type;location;lat;lon;timestamp;P1;durP1;ratioP1;P2;durP2;ratioP2
22826;SDS011;11580;52.562;13.418;2023-04-16T00:01:12;21.50;;;19.70;;
22826;SDS011;11580;52.562;13.418;2023-04-16T00:03:39;21.43;;;19.53;;
22826;SDS011;11580;52.562;13.418;2023-04-16T00:06:06;20.27;;;18.60;;
22826;SDS011;11580;52.562;13.418;2023-04-16T00:08:33;20.50;;;18.80;;
22826;SDS011;11580;52.562;13.418;2023-04-16T00:11:01;19.90;;;18.17;;
22826;SDS011;11580;52.562;13.418;2023-04-16T00:13:28;20.17;;;18.37;;
22826;SDS011;11580;52.562;13.418;2023-04-16T00:15:55;21.37;;;19.33;;
22826;SDS011;11580;52.562;13.418;2023-04-16T00:18:24;22.57;;;20.57;;
22826;SDS011;11580;52.562;13.418;2023-04-16T00:20:51;20.97;;;19.13;;
22826;SDS011;11580;52.562;13.418;2023-04-16T00:23:19;22.10;;;20.10;;
22826;SDS011;11580;52.562;13.418;2023-04-16T00:25:46;21.03;;;19.23;;
22826;SDS011;11580;52.562;13.418;2023-04-16T00:28:13;21.83;;;19.93;;
22826;SDS011;11580;52.562;13.418;2023-04-16T00:30:40;22.70;;;20.73;;
22826;SDS011;11580;52.562;13.418;2023-04-16T00:33:08;21.40;;;19.57;;
22826;SDS011;11580;52.562;13.418;2023-04-16T00:35:36;21.70;;;19.80;;
22826;SDS011;11580;52.562;13.418;2023-04-16T00:38:03;20.47;;;18.77;;
22826;SDS011;11580;52.562;13.418;2023-04-16T00:40:30;22.23;;;20.23;;
22826;SDS011;11580;52.562;13.418;2023-04-16T00:42:58;21.27;;;19.37;;
22826;SDS011;11580;52.562;13.418;2023-04-16T00:45:25;20.20;;;18.57;;
22826;SDS011;11580;52.562;13.418;2023-04-16T00:47:52;19.80;;;18.00;;
22826;SDS011;11580;52.562;13.418;2023-04-16T00:50:20;21.43;;;19.63;;
22826;SDS011;11580;52.562;13.418;2023-04-16T00:52:49;20.77;;;19.00;;
22826;SDS011;11580;52.562;13.418;2023-04-16T00:55:17;19.53;;;17.70;;
22826;SDS011;11580;52.562;13.418;2023-04-16T00:57:45;19.47;;;17.67;;
22826;SDS011;11580;52.562;13.418;2023-04-16T01:00:12;20.13;;;18.43;;
22826;SDS011;11580;52.562;13.418;2023-04-16T01:02:40;20.17;;;18.50;;
22826;SDS011;11580;52.562;13.418;2023-04-16T01:05:07;19.90;;;18.30;;
22826;SDS011;11580;52.562;13.418;2023-04-16T01:07:35;22.23;;;20.40;;
22826;SDS011;11580;52.562;13.418;2023-04-16T01:10:04;20.37;;;18.60;;
22826;SDS011;11580;52.562;13.418;2023-04-16T01:12:33;20.40;;;18.60;;
22826;SDS011;11580;52.562;13.418;2023-04-16T01:15:00;18.80;;;17.20;;
22826;SDS011;11580;52.562;13.418;2023-04-16T01:17:27;21.10;;;19.30;;
22826;SDS011;11580;52.562;13.418;2023-04-16T01:19:56;20.73;;;19.03;;
22826;SDS011;11580;52.562;13.418;2023-04-16T01:22:26;18.70;;;17.10;;
22826;SDS011;11580;52.562;13.418;2023-04-16T01:24:53;20.37;;;18.60;;
22826;SDS011;11580;52.562;13.418;2023-04-16T01:27:22;21.67;;;19.67;;
22826;SDS011;11580;52.562;13.418;2023-04-16T01:29:49;20.00;;;18.30;;
22826;SDS011;11580;52.562;13.418;2023-04-16T01:32:21;20.43;;;18.63;;
22826;SDS011;11580;52.562;13.418;2023-04-16T01:34:49;21.63;;;19.67;;
22826;SDS011;11580;52.562;13.418;2023-04-16T01:37:16;20.13;;;18.33;;
22826;SDS011;11580;52.562;13.418;2023-04-16T01:39:46;20.17;;;18.43;;
22826;SDS011;11580;52.562;13.418;2023-04-16T01:42:13;19.87;;;18.07;;
22826;SDS011;11580;52.562;13.418;2023-04-16T01:44:40;21.37;;;19.57;;
22826;SDS011;11580;52.562;13.418;2023-04-16T01:47:07;20.70;;;18.93;;
22826;SDS011;11580;52.562;13.418;2023-04-16T01:49:34;20.27;;;18.57;;
22826;SDS011;11580;52.562;13.418;2023-04-16T01:52:02;19.70;;;18.10;;
22826;SDS011;11580;52.562;13.418;2023-04-16T01:54:29;21.30;;;19.50;;
22826;SDS011;11580;52.562;13.418;2023-04-16T01:56:58;19.57;;;18.00;;
22826;SDS011;11580;52.562;13.418;2023-04-16T01:59:26;19.93;;;18.30;;
22826;SDS011;11580;52.562;13.418;2023-04-16T02:01:54;18.60;;;17.10;;
22826;SDS011;11580;52.562;13.418;2023-04-16T02:04:21;19.63;;;17.83;;
22826;SDS011;11580;52.562;13.418;2023-04-16T02:06:48;20.47;;;18.67;;
22826;SDS011;11580;52.562;13.418;2023-04-16T02:09:15;19.10;;;17.50;;
22826;SDS011;11580;52.562;13.418;2023-04-16T02:11:43;18.87;;;17.17;;
22826;SDS011;11580;52.562;13.418;2023-04-16T02:14:11;20.57;;;18.80;;
22826;SDS011;11580;52.562;13.418;2023-04-16T02:16:38;19.43;;;17.80;;
22826;SDS011;11580;52.562;13.418;2023-04-16T02:19:16;18.87;;;17.17;;
22826;SDS011;11580;52.562;13.418;2023-04-16T02:21:43;19.67;;;18.03;;
22826;SDS011;11580;52.562;13.418;2023-04-16T02:24:11;18.90;;;17.27;;
22826;SDS011;11580;52.562;13.418;2023-04-16T02:26:39;18.80;;;17.17;;
22826;SDS011;11580;52.562;13.418;2023-04-16T02:29:13;19.00;;;17.40;;
22826;SDS011;11580;52.562;13.418;2023-04-16T02:31:45;19.27;;;17.60;;
22826;SDS011;11580;52.562;13.418;2023-04-16T02:34:14;19.77;;;18.07;;
22826;SDS011;11580;52.562;13.418;2023-04-16T02:36:41;19.70;;;18.00;;
22826;SDS011;11580;52.562;13.418;2023-04-16T02:39:08;20.60;;;18.80;;
22826;SDS011;11580;52.562;13.418;2023-04-16T02:41:37;21.23;;;19.47;;
22826;SDS011;11580;52.562;13.418;2023-04-16T02:44:04;20.87;;;19.10;;
22826;SDS011;11580;52.562;13.418;2023-04-16T02:46:33;20.57;;;18.87;;
22826;SDS011;11580;52.562;13.418;2023-04-16T02:49:00;23.60;;;21.40;;
22826;SDS011;11580;52.562;13.418;2023-04-16T02:51:27;23.67;;;21.47;;
22826;SDS011;11580;52.562;13.418;2023-04-16T02:53:55;23.27;;;21.10;;
22826;SDS011;11580;52.562;13.418;2023-04-16T02:56:22;21.17;;;19.17;;
22826;SDS011;11580;52.562;13.418;2023-04-16T02:58:49;23.23;;;21.00;;
22826;SDS011;11580;52.562;13.418;2023-04-16T03:01:17;22.80;;;20.80;;
22826;SDS011;11580;52.562;13.418;2023-04-16T03:03:49;21.53;;;19.53;;
22826;SDS011;11580;52.562;13.418;2023-04-16T03:06:16;21.97;;;20.00;;
22826;SDS011;11580;52.562;13.418;2023-04-16T03:08:43;24.60;;;22.10;;
22826;SDS011;11580;52.562;13.418;2023-04-16T03:11:10;22.17;;;20.23;;
22826;SDS011;11580;52.562;13.418;2023-04-16T03:13:38;22.90;;;20.77;;
22826;SDS011;11580;52.562;13.418;2023-04-16T03:16:05;23.13;;;20.97;;
22826;SDS011;11580;52.562;13.418;2023-04-16T03:18:33;22.33;;;20.27;;
22826;SDS011;11580;52.562;13.418;2023-04-16T03:21:01;22.13;;;20.13;;
22826;SDS011;11580;52.562;13.418;2023-04-16T03:23:30;24.20;;;21.90;;
22826;SDS011;11580;52.562;13.418;2023-04-16T03:25:57;22.83;;;20.67;;
22826;SDS011;11580;52.562;13.418;2023-04-16T03:28:25;21.80;;;19.90;;
22826;SDS011;11580;52.562;13.418;2023-04-16T03:30:52;22.17;;;19.97;;
22826;SDS011;11580;52.562;13.418;2023-04-16T03:33:19;22.80;;;20.50;;
22826;SDS011;11580;52.562;13.418;2023-04-16T03:35:53;22.27;;;20.17;;
22826;SDS011;11580;52.562;13.418;2023-04-16T03:38:25;18.70;;;17.07;;
22826;SDS011;11580;52.562;13.418;2023-04-16T03:40:54;19.87;;;18.07;;
22826;SDS011;11580;52.562;13.418;2023-04-16T03:43:22;20.87;;;18.97;;
22826;SDS011;11580;52.562;13.418;2023-04-16T03:45:49;20.87;;;18.87;;
22826;SDS011;11580;52.562;13.418;2023-04-16T03:48:20;21.70;;;19.60;;
22826;SDS011;11580;52.562;13.418;2023-04-16T03:50:47;19.57;;;17.97;;
22826;SDS011;11580;52.562;13.418;2023-04-16T03:53:17;20.60;;;18.80;;
22826;SDS011;11580;52.562;13.418;2023-04-16T03:55:48;19.27;;;17.57;;
22826;SDS011;11580;52.562;13.418;2023-04-16T03:58:16;18.77;;;17.07;;
22826;SDS011;11580;52.562;13.418;2023-04-16T04:00:45;20.47;;;18.43;;
22826;SDS011;11580;52.562;13.418;2023-04-16T04:03:14;19.47;;;17.77;;
22826;SDS011;11580;52.562;13.418;2023-04-16T04:05:44;20.00;;;18.00;;
22826;SDS011;11580;52.562;13.418;2023-04-16T04:08:14;20.33;;;18.40;;
22826;SDS011;11580;52.562;13.418;2023-04-16T04:10:41;21.33;;;19.17;;
22826;SDS011;11580;52.562;13.418;2023-04-16T04:13:12;20.43;;;18.63;;
22826;SDS011;11580;52.562;13.418;2023-04-16T04:15:39;20.50;;;18.60;;
22826;SDS011;11580;52.562;13.418;2023-04-16T04:18:07;21.77;;;19.77;;
22826;SDS011;11580;52.562;13.418;2023-04-16T04:20:37;21.20;;;19.10;;
22826;SDS011;11580;52.562;13.418;2023-04-16T04:23:05;20.27;;;18.57;;
22826;SDS011;11580;52.562;13.418;2023-04-16T04:25:32;21.03;;;19.20;;
22826;SDS011;11580;52.562;13.418;2023-04-16T04:28:00;22.13;;;20.17;;
22826;SDS011;11580;52.562;13.418;2023-04-16T04:30:29;21.40;;;19.40;;
22826;SDS011;11580;52.562;13.418;2023-04-16T04:32:56;22.23;;;20.03;;
22826;SDS011;11580;52.562;13.418;2023-04-16T04:35:23;20.80;;;19.00;;
22826;SDS011;11580;52.562;13.418;2023-04-16T04:37:51;24.30;;;21.77;;
22826;SDS011;11580;52.562;13.418;2023-04-16T04:40:19;21.13;;;19.00;;
22826;SDS011;11580;52.562;13.418;2023-04-16T04:42:46;22.90;;;20.77;;
22826;SDS011;11580;52.562;13.418;2023-04-16T04:45:14;22.30;;;20.20;;
22826;SDS011;11580;52.562;13.418;2023-04-16T04:47:43;22.23;;;19.97;;
22826;SDS011;11580;52.562;13.418;2023-04-16T04:50:10;23.30;;;20.90;;
22826;SDS011;11580;52.562;13.418;2023-04-16T04:52:37;23.60;;;20.97;;
22826;SDS011;11580;52.562;13.418;2023-04-16T04:55:06;22.97;;;20.70;;
22826;SDS011;11580;52.562;13.418;2023-04-16T04:57:34;24.37;;;22.07;;
22826;SDS011;11580;52.562;13.418;2023-04-16T05:00:03;24.30;;;21.90;;
22826;SDS011;11580;52.562;13.418;2023-04-16T05:02:40;21.87;;;19.77;;
22826;SDS011;11580;52.562;13.418;2023-04-16T05:05:09;23.57;;;21.20;;
22826;SDS011;11580;52.562;13.418;2023-04-16T05:07:36;21.03;;;18.77;;
22826;SDS011;11580;52.562;13.418;2023-04-16T05:10:03;23.27;;;21.00;;
22826;SDS011;11580;52.562;13.418;2023-04-16T05:12:38;22.87;;;20.70;;
22826;SDS011;11580;52.562;13.418;2023-04-16T05:15:12;22.13;;;19.83;;
22826;SDS011;11580;52.562;13.418;2023-04-16T05:17:40;22.60;;;20.57;;
22826;SDS011;11580;52.562;13.418;2023-04-16T05:20:09;22.10;;;20.00;;
22826;SDS011;11580;52.562;13.418;2023-04-16T05:22:36;21.93;;;19.70;;
22826;SDS011;11580;52.562;13.418;2023-04-16T05:25:04;22.33;;;20.23;;
22826;SDS011;11580;52.562;13.418;2023-04-16T05:27:32;21.27;;;19.27;;
22826;SDS011;11580;52.562;13.418;2023-04-16T05:29:59;22.10;;;19.80;;
22826;SDS011;11580;52.562;13.418;2023-04-16T05:32:26;21.73;;;19.73;;
22826;SDS011;11580;52.562;13.418;2023-04-16T05:34:53;20.07;;;17.90;;
22826;SDS011;11580;52.562;13.418;2023-04-16T05:37:22;22.30;;;20.00;;
22826;SDS011;11580;52.562;13.418;2023-04-16T05:39:49;19.90;;;18.10;;
22826;SDS011;11580;52.562;13.418;2023-04-16T05:42:16;20.40;;;18.30;;
22826;SDS011;11580;52.562;13.418;2023-04-16T05:44:43;19.77;;;17.80;;
22826;SDS011;11580;52.562;13.418;2023-04-16T05:47:10;19.83;;;17.83;;
22826;SDS011;11580;52.562;13.418;2023-04-16T05:49:37;21.83;;;19.70;;
22826;SDS011;11580;52.562;13.418;2023-04-16T05:52:05;20.23;;;18.23;;
22826;SDS011;11580;52.562;13.418;2023-04-16T05:54:33;19.30;;;17.60;;
22826;SDS011;11580;52.562;13.418;2023-04-16T05:57:00;20.40;;;18.23;;
22826;SDS011;11580;52.562;13.418;2023-04-16T05:59:28;18.70;;;16.97;;
22826;SDS011;11580;52.562;13.418;2023-04-16T06:01:56;20.73;;;18.63;;
22826;SDS011;11580;52.562;13.418;2023-04-16T06:04:23;20.80;;;18.60;;
22826;SDS011;11580;52.562;13.418;2023-04-16T06:06:50;19.67;;;17.90;;
22826;SDS011;11580;52.562;13.418;2023-04-16T06:09:17;19.63;;;17.83;;
22826;SDS011;11580;52.562;13.418;2023-04-16T06:11:46;20.27;;;18.47;;
22826;SDS011;11580;52.562;13.418;2023-04-16T06:14:14;19.33;;;17.53;;
22826;SDS011;11580;52.562;13.418;2023-04-16T06:16:41;21.63;;;19.57;;
22826;SDS011;11580;52.562;13.418;2023-04-16T06:19:08;20.30;;;18.30;;
22826;SDS011;11580;52.562;13.418;2023-04-16T06:21:35;20.63;;;18.73;;
22826;SDS011;11580;52.562;13.418;2023-04-16T06:24:03;20.67;;;18.77;;
22826;SDS011;11580;52.562;13.418;2023-04-16T06:26:31;18.77;;;16.97;;
22826;SDS011;11580;52.562;13.418;2023-04-16T06:28:59;19.33;;;17.53;;
22826;SDS011;11580;52.562;13.418;2023-04-16T06:31:27;19.73;;;17.80;;
22826;SDS011;11580;52.562;13.418;2023-04-16T06:33:55;20.13;;;18.33;;
22826;SDS011;11580;52.562;13.418;2023-04-16T06:36:22;20.80;;;18.90;;
22826;SDS011;11580;52.562;13.418;2023-04-16T06:38:51;19.07;;;17.27;;
22826;SDS011;11580;52.562;13.418;2023-04-16T06:41:18;20.73;;;18.53;;
22826;SDS011;11580;52.562;13.418;2023-04-16T06:43:46;20.33;;;18.53;;
22826;SDS011;11580;52.562;13.418;2023-04-16T06:46:15;20.33;;;18.23;;
22826;SDS011;11580;52.562;13.418;2023-04-16T06:48:42;19.87;;;17.90;;
22826;SDS011;11580;52.562;13.418;2023-04-16T06:51:09;20.20;;;18.20;;
22826;SDS011;11580;52.562;13.418;2023-04-16T06:53:37;21.00;;;19.00;;
22826;SDS011;11580;52.562;13.418;2023-04-16T06:56:05;20.77;;;18.67;;
22826;SDS011;11580;52.562;13.418;2023-04-16T06:58:32;19.23;;;17.40;;
22826;SDS011;11580;52.562;13.418;2023-04-16T07:01:00;20.10;;;18.00;;
22826;SDS011;11580;52.562;13.418;2023-04-16T07:03:29;20.07;;;18.07;;
22826;SDS011;11580;52.562;13.418;2023-04-16T07:05:56;18.87;;;17.17;;
22826;SDS011;11580;52.562;13.418;2023-04-16T07:08:24;21.90;;;18.90;;
22826;SDS011;11580;52.562;13.418;2023-04-16T07:10:51;20.50;;;18.00;;
22826;SDS011;11580;52.562;13.418;2023-04-16T07:13:19;21.93;;;19.80;;
22826;SDS011;11580;52.562;13.418;2023-04-16T07:15:46;21.50;;;19.27;;
22826;SDS011;11580;52.562;13.418;2023-04-16T07:18:13;20.90;;;19.00;;
22826;SDS011;11580;52.562;13.418;2023-04-16T07:20:42;20.60;;;18.43;;
22826;SDS011;11580;52.562;13.418;2023-04-16T07:23:10;22.27;;;20.10;;
22826;SDS011;11580;52.562;13.418;2023-04-16T07:25:37;22.60;;;20.37;;
22826;SDS011;11580;52.562;13.418;2023-04-16T07:28:04;22.40;;;20.20;;
22826;SDS011;11580;52.562;13.418;2023-04-16T07:30:31;20.57;;;18.70;;
22826;SDS011;11580;52.562;13.418;2023-04-16T07:32:59;20.90;;;18.83;;
22826;SDS011;11580;52.562;13.418;2023-04-16T07:35:28;20.33;;;18.40;;
22826;SDS011;11580;52.562;13.418;2023-04-16T07:37:57;19.87;;;18.07;;
22826;SDS011;11580;52.562;13.418;2023-04-16T07:40:24;20.33;;;18.30;;
22826;SDS011;11580;52.562;13.418;2023-04-16T07:42:51;21.50;;;19.40;;
22826;SDS011;11580;52.562;13.418;2023-04-16T07:45:19;18.67;;;16.70;;
22826;SDS011;11580;52.562;13.418;2023-04-16T07:47:47;19.20;;;17.50;;
22826;SDS011;11580;52.562;13.418;2023-04-16T07:50:14;19.83;;;18.00;;
22826;SDS011;11580;52.562;13.418;2023-04-16T07:52:43;23.13;;;20.93;;
22826;SDS011;11580;52.562;13.418;2023-04-16T07:55:12;20.07;;;18.00;;
22826;SDS011;11580;52.562;13.418;2023-04-16T07:57:39;21.07;;;19.07;;
22826;SDS011;11580;52.562;13.418;2023-04-16T08:00:07;18.97;;;17.17;;
22826;SDS011;11580;52.562;13.418;2023-04-16T08:02:39;18.90;;;17.10;;
22826;SDS011;11580;52.562;13.418;2023-04-16T08:05:06;18.23;;;16.50;;
22826;SDS011;11580;52.562;13.418;2023-04-16T08:07:35;19.27;;;17.30;;
22826;SDS011;11580;52.562;13.418;2023-04-16T08:10:02;20.33;;;18.33;;
22826;SDS011;11580;52.562;13.418;2023-04-16T08:12:31;19.63;;;17.77;;
22826;SDS011;11580;52.562;13.418;2023-04-16T08:14:59;18.87;;;17.07;;
22826;SDS011;11580;52.562;13.418;2023-04-16T08:17:26;19.10;;;17.23;;
22826;SDS011;11580;52.562;13.418;2023-04-16T08:19:54;18.80;;;16.93;;
22826;SDS011;11580;52.562;13.418;2023-04-16T08:22:21;20.00;;;17.93;;
22826;SDS011;11580;52.562;13.418;2023-04-16T08:24:48;21.03;;;18.93;;
22826;SDS011;11580;52.562;13.418;2023-04-16T08:27:15;20.80;;;18.30;;
22826;SDS011;11580;52.562;13.418;2023-04-16T08:29:44;19.67;;;17.70;;
22826;SDS011;11580;52.562;13.418;2023-04-16T08:32:11;18.37;;;16.63;;
22826;SDS011;11580;52.562;13.418;2023-04-16T08:34:38;19.43;;;17.63;;
22826;SDS011;11580;52.562;13.418;2023-04-16T08:37:07;18.60;;;16.93;;
22826;SDS011;11580;52.562;13.418;2023-04-16T08:39:34;20.93;;;18.90;;
22826;SDS011;11580;52.562;13.418;2023-04-16T08:42:02;20.90;;;18.87;;
22826;SDS011;11580;52.562;13.418;2023-04-16T08:44:36;20.67;;;18.57;;
22826;SDS011;11580;52.562;13.418;2023-04-16T08:47:13;20.93;;;18.87;;
22826;SDS011;11580;52.562;13.418;2023-04-16T08:49:42;21.90;;;19.30;;
22826;SDS011;11580;52.562;13.418;2023-04-16T08:52:12;21.57;;;19.67;;
22826;SDS011;11580;52.562;13.418;2023-04-16T08:54:45;20.73;;;18.77;;
22826;SDS011;11580;52.562;13.418;2023-04-16T08:57:22;20.00;;;18.10;;
22826;SDS011;11580;52.562;13.418;2023-04-16T08:59:57;21.90;;;19.60;;
22826;SDS011;11580;52.562;13.418;2023-04-16T09:02:25;20.47;;;18.37;;
22826;SDS011;11580;52.562;13.418;2023-04-16T09:04:53;20.50;;;18.40;;
22826;SDS011;11580;52.562;13.418;2023-04-16T09:07:24;21.27;;;19.27;;
22826;SDS011;11580;52.562;13.418;2023-04-16T09:09:54;22.87;;;20.67;;
22826;SDS011;11580;52.562;13.418;2023-04-16T09:12:24;22.70;;;20.50;;
22826;SDS011;11580;52.562;13.418;2023-04-16T09:14:52;24.40;;;22.00;;
22826;SDS011;11580;52.562;13.418;2023-04-16T09:17:21;17.73;;;16.23;;
22826;SDS011;11580;52.562;13.418;2023-04-16T09:19:48;19.47;;;17.67;;
22826;SDS011;11580;52.562;13.418;2023-04-16T09:22:15;19.80;;;17.90;;
22826;SDS011;11580;52.562;13.418;2023-04-16T09:24:42;19.70;;;17.80;;
22826;SDS011;11580;52.562;13.418;2023-04-16T09:27:10;18.43;;;16.80;;
22826;SDS011;11580;52.562;13.418;2023-04-16T09:29:38;18.37;;;16.57;;
22826;SDS011;11580;52.562;13.418;2023-04-16T09:32:07;18.00;;;16.17;;
22826;SDS011;11580;52.562;13.418;2023-04-16T09:37:25;17.50;;;15.80;;
22826;SDS011;11580;52.562;13.418;2023-04-16T09:39:55;19.87;;;17.97;;
22826;SDS011;11580;52.562;13.418;2023-04-16T09:42:24;20.07;;;18.27;;
22826;SDS011;11580;52.562;13.418;2023-04-16T09:44:53;20.93;;;18.83;;
22826;SDS011;11580;52.562;13.418;2023-04-16T09:47:22;22.10;;;20.00;;
22826;SDS011;11580;52.562;13.418;2023-04-16T09:49:51;19.80;;;17.90;;
22826;SDS011;11580;52.562;13.418;2023-04-16T09:52:25;20.13;;;18.20;;
22826;SDS011;11580;52.562;13.418;2023-04-16T09:54:52;19.77;;;17.90;;
22826;SDS011;11580;52.562;13.418;2023-04-16T09:57:20;20.07;;;18.07;;
22826;SDS011;11580;52.562;13.418;2023-04-16T09:59:51;22.07;;;19.87;;
22826;SDS011;11580;52.562;13.418;2023-04-16T10:02:25;21.00;;;18.90;;
22826;SDS011;11580;52.562;13.418;2023-04-16T10:04:52;22.10;;;19.97;;
22826;SDS011;11580;52.562;13.418;2023-04-16T10:07:21;22.60;;;20.40;;
22826;SDS011;11580;52.562;13.418;2023-04-16T10:09:53;22.40;;;20.33;;
22826;SDS011;11580;52.562;13.418;2023-04-16T10:12:21;22.63;;;20.43;;
22826;SDS011;11580;52.562;13.418;2023-04-16T10:14:49;22.43;;;20.20;;
22826;SDS011;11580;52.562;13.418;2023-04-16T10:17:16;25.27;;;22.87;;
22826;SDS011;11580;52.562;13.418;2023-04-16T10:19:44;23.37;;;21.03;;
22826;SDS011;11580;52.562;13.418;2023-04-16T10:22:12;24.13;;;21.73;;
22826;SDS011;11580;52.562;13.418;2023-04-16T10:24:40;24.40;;;22.00;;
22826;SDS011;11580;52.562;13.418;2023-04-16T10:27:09;25.60;;;23.17;;
22826;SDS011;11580;52.562;13.418;2023-04-16T10:29:36;26.23;;;23.43;;
22826;SDS011;11580;52.562;13.418;2023-04-16T10:32:04;24.13;;;21.83;;
22826;SDS011;11580;52.562;13.418;2023-04-16T10:34:32;24.43;;;21.97;;
22826;SDS011;11580;52.562;13.418;2023-04-16T10:37:01;24.00;;;21.80;;
22826;SDS011;11580;52.562;13.418;2023-04-16T10:39:29;23.53;;;21.33;;
22826;SDS011;11580;52.562;13.418;2023-04-16T10:42:09;24.27;;;21.97;;
22826;SDS011;11580;52.562;13.418;2023-04-16T10:44:38;23.90;;;21.77;;
22826;SDS011;11580;52.562;13.418;2023-04-16T10:47:09;26.20;;;23.83;;
22826;SDS011;11580;52.562;13.418;2023-04-16T10:49:38;25.37;;;22.80;;
22826;SDS011;11580;52.562;13.418;2023-04-16T10:52:07;23.97;;;21.83;;
22826;SDS011;11580;52.562;13.418;2023-04-16T10:54:37;26.30;;;23.80;;
22826;SDS011;11580;52.562;13.418;2023-04-16T10:57:06;26.83;;;24.43;;
22826;SDS011;11580;52.562;13.418;2023-04-16T10:59:42;28.53;;;25.73;;
22826;SDS011;11580;52.562;13.418;2023-04-16T11:02:12;25.60;;;23.20;;
22826;SDS011;11580;52.562;13.418;2023-04-16T11:04:41;24.77;;;22.57;;
22826;SDS011;11580;52.562;13.418;2023-04-16T11:07:17;23.60;;;21.60;;
22826;SDS011;11580;52.562;13.418;2023-04-16T11:09:52;22.90;;;20.93;;
22826;SDS011;11580;52.562;13.418;2023-04-16T11:12:23;23.13;;;21.23;;
22826;SDS011;11580;52.562;13.418;2023-04-16T11:14:53;23.40;;;21.50;;
22826;SDS011;11580;52.562;13.418;2023-04-16T11:17:27;21.40;;;19.67;;
22826;SDS011;11580;52.562;13.418;2023-04-16T11:19:57;21.50;;;19.80;;
22826;SDS011;11580;52.562;13.418;2023-04-16T11:22:24;21.87;;;20.13;;
22826;SDS011;11580;52.562;13.418;2023-04-16T11:24:53;21.10;;;19.40;;
22826;SDS011;11580;52.562;13.418;2023-04-16T11:27:23;21.17;;;19.37;;
22826;SDS011;11580;52.562;13.418;2023-04-16T11:29:58;20.87;;;19.17;;
22826;SDS011;11580;52.562;13.418;2023-04-16T11:32:26;20.73;;;19.03;;
22826;SDS011;11580;52.562;13.418;2023-04-16T11:34:56;22.00;;;20.10;;
22826;SDS011;11580;52.562;13.418;2023-04-16T11:37:31;19.80;;;18.20;;
22826;SDS011;11580;52.562;13.418;2023-04-16T11:39:59;22.17;;;20.37;;
22826;SDS011;11580;52.562;13.418;2023-04-16T11:42:29;19.97;;;18.30;;
22826;SDS011;11580;52.562;13.418;2023-04-16T11:44:57;18.10;;;16.60;;
22826;SDS011;11580;52.562;13.418;2023-04-16T11:47:26;18.97;;;17.47;;
22826;SDS011;11580;52.562;13.418;2023-04-16T11:49:55;17.60;;;16.30;;
22826;SDS011;11580;52.562;13.418;2023-04-16T11:52:26;18.50;;;17.03;;
22826;SDS011;11580;52.562;13.418;2023-04-16T11:54:55;16.73;;;15.43;;
22826;SDS011;11580;52.562;13.418;2023-04-16T11:57:24;17.70;;;16.30;;
22826;SDS011;11580;52.562;13.418;2023-04-16T11:59:54;16.73;;;15.43;;
22826;SDS011;11580;52.562;13.418;2023-04-16T12:07:57;15.10;;;14.00;;
22826;SDS011;11580;52.562;13.418;2023-04-16T12:10:26;14.20;;;13.10;;
22826;SDS011;11580;52.562;13.418;2023-04-16T12:12:54;14.33;;;13.13;;
22826;SDS011;11580;52.562;13.418;2023-04-16T12:15:43;15.13;;;13.83;;
22826;SDS011;11580;52.562;13.418;2023-04-16T12:18:12;13.83;;;12.77;;
22826;SDS011;11580;52.562;13.418;2023-04-16T12:20:40;14.40;;;13.30;;
22826;SDS011;11580;52.562;13.418;2023-04-16T12:23:08;12.50;;;11.50;;
22826;SDS011;11580;52.562;13.418;2023-04-16T12:25:41;13.00;;;12.00;;
22826;SDS011;11580;52.562;13.418;2023-04-16T12:28:08;13.90;;;12.93;;
22826;SDS011;11580;52.562;13.418;2023-04-16T12:30:47;13.43;;;12.43;;
22826;SDS011;11580;52.562;13.418;2023-04-16T12:33:17;12.87;;;11.77;;
22826;SDS011;11580;52.562;13.418;2023-04-16T12:35:45;13.10;;;12.10;;
22826;SDS011;11580;52.562;13.418;2023-04-16T12:38:13;12.80;;;11.80;;
22826;SDS011;11580;52.562;13.418;2023-04-16T12:40:40;13.83;;;12.70;;
22826;SDS011;11580;52.562;13.418;2023-04-16T12:43:07;13.20;;;12.20;;
22826;SDS011;11580;52.562;13.418;2023-04-16T12:45:35;12.67;;;11.67;;
22826;SDS011;11580;52.562;13.418;2023-04-16T12:48:05;12.00;;;11.10;;
22826;SDS011;11580;52.562;13.418;2023-04-16T12:50:32;12.53;;;11.53;;
22826;SDS011;11580;52.562;13.418;2023-04-16T12:53:00;12.83;;;11.73;;
22826;SDS011;11580;52.562;13.418;2023-04-16T12:55:27;12.77;;;11.77;;
22826;SDS011;11580;52.562;13.418;2023-04-16T12:57:55;12.00;;;11.10;;
22826;SDS011;11580;52.562;13.418;2023-04-16T13:00:22;12.50;;;11.50;;
22826;SDS011;11580;52.562;13.418;2023-04-16T13:02:49;12.67;;;11.67;;
22826;SDS011;11580;52.562;13.418;2023-04-16T13:05:18;12.80;;;11.80;;
22826;SDS011;11580;52.562;13.418;2023-04-16T13:07:45;12.30;;;11.30;;
22826;SDS011;11580;52.562;13.418;2023-04-16T13:10:12;12.57;;;11.43;;
22826;SDS011;11580;52.562;13.418;2023-04-16T13:12:40;12.73;;;11.70;;
22826;SDS011;11580;52.562;13.418;2023-04-16T13:15:08;12.43;;;11.50;;
22826;SDS011;11580;52.562;13.418;2023-04-16T13:17:36;13.00;;;11.90;;
22826;SDS011;11580;52.562;13.418;2023-04-16T13:20:03;12.73;;;11.70;;
22826;SDS011;11580;52.562;13.418;2023-04-16T13:22:33;12.00;;;10.90;;
22826;SDS011;11580;52.562;13.418;2023-04-16T13:25:00;13.23;;;12.23;;
22826;SDS011;11580;52.562;13.418;2023-04-16T13:27:28;12.00;;;11.20;;
22826;SDS011;11580;52.562;13.418;2023-04-16T13:29:56;13.07;;;11.97;;
22826;SDS011;11580;52.562;13.418;2023-04-16T13:32:23;12.73;;;11.63;;
22826;SDS011;11580;52.562;13.418;2023-04-16T13:34:50;12.47;;;11.57;;
22826;SDS011;11580;52.562;13.418;2023-04-16T13:37:17;11.17;;;10.37;;
22826;SDS011;11580;52.562;13.418;2023-04-16T13:39:46;12.33;;;11.23;;
22826;SDS011;11580;52.562;13.418;2023-04-16T13:42:13;12.77;;;11.77;;
22826;SDS011;11580;52.562;13.418;2023-04-16T13:44:40;12.07;;;11.17;;
22826;SDS011;11580;52.562;13.418;2023-04-16T13:47:08;11.43;;;10.57;;
22826;SDS011;11580;52.562;13.418;2023-04-16T13:49:35;12.20;;;11.20;;
22826;SDS011;11580;52.562;13.418;2023-04-16T13:52:02;11.60;;;10.70;;
22826;SDS011;11580;52.562;13.418;2023-04-16T13:54:30;12.10;;;11.10;;
22826;SDS011;11580;52.562;13.418;2023-04-16T13:56:59;12.40;;;11.30;;
22826;SDS011;11580;52.562;13.418;2023-04-16T13:59:26;12.37;;;11.27;;
22826;SDS011;11580;52.562;13.418;2023-04-16T14:01:53;12.57;;;11.57;;
22826;SDS011;11580;52.562;13.418;2023-04-16T14:04:20;11.83;;;10.93;;
22826;SDS011;11580;52.562;13.418;2023-04-16T14:06:47;10.73;;;9.83;;
22826;SDS011;11580;52.562;13.418;2023-04-16T14:09:15;10.03;;;9.20;;
22826;SDS011;11580;52.562;13.418;2023-04-16T14:11:42;10.73;;;9.83;;
22826;SDS011;11580;52.562;13.418;2023-04-16T14:14:11;9.77;;;9.07;;
22826;SDS011;11580;52.562;13.418;2023-04-16T14:16:38;9.70;;;8.90;;
22826;SDS011;11580;52.562;13.418;2023-04-16T14:19:05;9.07;;;8.43;;
22826;SDS011;11580;52.562;13.418;2023-04-16T14:21:32;9.70;;;8.77;;
22826;SDS011;11580;52.562;13.418;2023-04-16T14:24:00;9.40;;;8.60;;